createdAt,value
2019-04-03T00:01:37.488Z,14.27
2019-04-03T00:04:42.768Z,13.97
2019-04-03T00:07:48.044Z,14.07
2019-04-03T00:10:53.274Z,14.30
2019-04-03T00:13:58.574Z,13.57
2019-04-03T00:17:03.857Z,13.43
2019-04-03T00:20:09.195Z,14.67
2019-04-03T00:23:14.553Z,14.53
2019-04-03T00:26:21.813Z,15.63
2019-04-03T00:29:28.314Z,15.00
2019-04-03T00:32:33.674Z,14.00
2019-04-03T00:35:39.041Z,14.53
2019-04-03T00:38:44.433Z,13.90
2019-04-03T00:41:52.874Z,13.77
2019-04-03T00:44:56.802Z,13.67
2019-04-03T00:48:02.119Z,12.70
2019-04-03T00:51:07.387Z,13.70
2019-04-03T00:54:12.673Z,14.07
2019-04-03T00:57:17.924Z,13.00
2019-04-03T01:00:23.222Z,13.37
2019-04-03T01:03:28.740Z,12.53
2019-04-03T01:06:35.063Z,13.00
2019-04-03T01:09:40.377Z,12.37
2019-04-03T01:12:46.904Z,14.03
2019-04-03T01:15:52.498Z,12.43
2019-04-03T01:18:57.787Z,12.77
2019-04-03T01:22:03.124Z,11.30
2019-04-03T01:25:09.372Z,10.80
2019-04-03T01:28:15.039Z,11.50
2019-04-03T01:31:20.301Z,11.00
2019-04-03T01:34:25.607Z,12.17
2019-04-03T01:37:31.038Z,11.40
2019-04-03T01:40:36.416Z,10.90
2019-04-03T01:43:41.664Z,10.67
2019-04-03T01:46:46.989Z,10.50
2019-04-03T01:49:52.294Z,11.27
2019-04-03T01:52:57.816Z,10.77
2019-04-03T01:56:05.086Z,10.50
2019-04-03T01:59:10.075Z,10.50
2019-04-03T02:02:15.319Z,10.60
2019-04-03T02:05:20.742Z,10.77
2019-04-03T02:08:26.108Z,11.10
2019-04-03T02:11:31.528Z,12.00
2019-04-03T02:14:36.864Z,11.90
2019-04-03T02:17:42.301Z,11.23
2019-04-03T02:20:50.558Z,10.80
2019-04-03T02:23:56.102Z,11.10
2019-04-03T02:27:03.117Z,11.37
2019-04-03T02:30:12.346Z,10.80
2019-04-03T02:33:16.577Z,9.80
2019-04-03T02:36:22.013Z,11.40
2019-04-03T02:39:27.735Z,10.67
2019-04-03T02:42:33.885Z,10.87
2019-04-03T02:45:39.238Z,10.87
2019-04-03T02:48:44.534Z,11.00
2019-04-03T02:51:53.270Z,10.77
2019-04-03T02:54:57.221Z,10.50
2019-04-03T02:58:02.721Z,11.27
2019-04-03T03:01:08.748Z,10.73
2019-04-03T03:04:14.142Z,11.23
2019-04-03T03:07:19.964Z,11.50
2019-04-03T03:10:25.884Z,10.83
2019-04-03T03:13:34.471Z,11.10
2019-04-03T03:16:39.334Z,11.27
2019-04-03T03:19:44.787Z,11.50
2019-04-03T03:22:51.154Z,10.63
2019-04-03T03:25:58.238Z,12.10
2019-04-03T03:29:16.563Z,11.47
2019-04-03T03:32:18.849Z,11.67
2019-04-03T03:35:27.903Z,11.87
2019-04-03T03:38:28.138Z,11.53
2019-04-03T03:41:33.766Z,11.37
2019-04-03T03:44:43.219Z,11.30
2019-04-03T03:47:46.696Z,10.87
2019-04-03T03:50:55.507Z,10.60
2019-04-03T03:53:59.822Z,12.30
2019-04-03T03:57:07.271Z,11.70
2019-04-03T04:00:12.555Z,11.90
2019-04-03T04:03:18.083Z,11.50
2019-04-03T04:06:27.926Z,11.40
2019-04-03T04:09:31.050Z,10.70
2019-04-03T04:12:39.822Z,10.80
2019-04-03T04:15:44.963Z,10.30
2019-04-03T04:18:50.997Z,11.17
2019-04-03T04:21:56.758Z,11.27
2019-04-03T04:25:05.349Z,10.80
2019-04-03T04:28:10.715Z,11.60
2019-04-03T04:31:17.978Z,10.73
2019-04-03T04:34:22.956Z,10.60
2019-04-03T04:37:30.048Z,11.90
2019-04-03T04:40:35.573Z,10.80
2019-04-03T04:43:41.111Z,11.90
2019-04-03T04:46:46.327Z,11.80
2019-04-03T04:49:51.757Z,11.60
2019-04-03T04:52:59.399Z,10.67
2019-04-03T04:56:06.581Z,11.70
2019-04-03T04:59:13.986Z,10.73
2019-04-03T05:02:20.224Z,11.17
2019-04-03T05:05:27.201Z,12.40
2019-04-03T05:08:33.587Z,12.70
2019-04-03T05:11:40.242Z,12.80
2019-04-03T05:14:46.860Z,13.47
2019-04-03T05:17:52.625Z,13.20
2019-04-03T05:20:57.956Z,13.63
2019-04-03T05:24:11.487Z,15.67
2019-04-03T05:27:10.456Z,15.10
2019-04-03T05:30:29.224Z,16.50
2019-04-03T05:33:35.497Z,17.73
2019-04-03T05:36:40.806Z,16.97
2019-04-03T05:39:46.033Z,18.10
2019-04-03T05:42:51.410Z,17.73
2019-04-03T05:45:56.652Z,18.73
2019-04-03T05:49:01.923Z,18.23
2019-04-03T05:52:08.125Z,19.53
2019-04-03T05:55:13.518Z,19.63
2019-04-03T05:58:19.001Z,20.10
2019-04-03T06:01:24.492Z,19.17
2019-04-03T06:04:29.921Z,22.43
2019-04-03T06:07:35.353Z,21.80
2019-04-03T06:10:40.720Z,22.50
2019-04-03T06:13:48.051Z,21.00
2019-04-03T06:16:55.521Z,21.97
2019-04-03T06:20:00.137Z,23.07
2019-04-03T06:23:05.482Z,22.67
2019-04-03T06:26:11.097Z,22.77
2019-04-03T06:29:18.441Z,21.90
2019-04-03T06:32:24.834Z,21.00
2019-04-03T06:35:30.420Z,21.50
2019-04-03T06:38:35.772Z,21.97
2019-04-03T06:41:42.080Z,20.37
2019-04-03T06:44:48.086Z,21.30
2019-04-03T06:47:53.376Z,19.83
2019-04-03T06:50:58.701Z,22.47
2019-04-03T06:54:06.941Z,20.20
2019-04-03T06:57:13.332Z,21.80
2019-04-03T07:00:18.015Z,19.67
2019-04-03T07:03:23.237Z,20.57
2019-04-03T07:06:28.877Z,19.93
2019-04-03T07:09:36.706Z,21.07
2019-04-03T07:12:41.255Z,22.93
2019-04-03T07:15:46.771Z,20.40
2019-04-03T07:19:00.272Z,21.93
2019-04-03T07:22:05.648Z,21.13
2019-04-03T07:25:13.582Z,22.10
2019-04-03T07:28:22.066Z,21.43
2019-04-03T07:31:27.487Z,22.30
2019-04-03T07:34:34.266Z,21.20
2019-04-03T07:37:39.969Z,21.37
2019-04-03T07:40:45.427Z,21.00
2019-04-03T07:43:50.704Z,20.47
2019-04-03T07:46:55.973Z,20.30
2019-04-03T07:50:01.262Z,20.50
2019-04-03T07:53:07.815Z,21.20
2019-04-03T07:56:13.352Z,21.50
2019-04-03T07:59:18.822Z,21.70
2019-04-03T08:02:26.901Z,20.87
2019-04-03T08:05:31.692Z,21.77
2019-04-03T08:08:39.584Z,21.27
2019-04-03T08:11:44.986Z,20.80
2019-04-03T08:14:51.255Z,21.07
2019-04-03T08:17:57.815Z,19.90
2019-04-03T08:21:03.307Z,20.47
2019-04-03T08:24:08.689Z,20.10
2019-04-03T08:27:14.178Z,20.63
2019-04-03T08:30:20.056Z,20.03
2019-04-03T08:33:27.471Z,20.20
2019-04-03T08:36:32.949Z,20.10
2019-04-03T08:39:38.304Z,20.10
2019-04-03T08:42:43.714Z,20.60
2019-04-03T08:45:50.679Z,19.90
2019-04-03T08:48:59.519Z,19.60
2019-04-03T08:52:05.657Z,19.27
2019-04-03T08:55:14.154Z,19.67
2019-04-03T08:58:20.974Z,18.07
2019-04-03T09:01:25.556Z,19.03
2019-04-03T09:04:30.846Z,19.23
2019-04-03T09:07:36.095Z,19.23
2019-04-03T09:10:41.370Z,21.23
2019-04-03T09:13:46.614Z,21.30
2019-04-03T09:16:52.007Z,20.90
2019-04-03T09:19:57.453Z,21.13
2019-04-03T09:23:02.757Z,20.90
2019-04-03T09:26:08.044Z,21.77
2019-04-03T09:29:15.458Z,21.60
2019-04-03T09:32:20.903Z,19.87
2019-04-03T09:35:27.654Z,20.37
2019-04-03T09:38:35.315Z,21.30
2019-04-03T09:41:40.105Z,21.10
2019-04-03T09:44:46.461Z,20.13
2019-04-03T09:47:51.857Z,20.10
2019-04-03T09:50:57.139Z,19.50
2019-04-03T09:54:02.491Z,20.97
2019-04-03T09:57:07.742Z,22.63
2019-04-03T10:00:14.820Z,22.57
2019-04-03T10:03:20.856Z,22.00
2019-04-03T10:06:30.389Z,20.57
2019-04-03T10:09:34.218Z,21.17
2019-04-03T10:12:39.499Z,20.63
2019-04-03T10:15:44.799Z,20.27
2019-04-03T10:18:50.272Z,20.40
2019-04-03T10:21:55.630Z,20.13
2019-04-03T10:25:04.851Z,21.00
2019-04-03T10:28:08.000Z,21.70
2019-04-03T10:31:13.265Z,22.37
2019-04-03T10:34:18.526Z,22.57
2019-04-03T10:37:23.751Z,22.30
2019-04-03T10:40:29.115Z,20.47
2019-04-03T10:43:36.651Z,21.63
2019-04-03T10:46:41.466Z,22.10
2019-04-03T10:49:47.082Z,22.20
2019-04-03T10:52:52.530Z,21.87
2019-04-03T10:55:59.685Z,21.20
2019-04-03T10:59:11.519Z,22.00
2019-04-03T11:02:13.640Z,22.17
2019-04-03T11:05:19.368Z,20.13
2019-04-03T11:08:24.776Z,20.67
2019-04-03T11:11:30.246Z,21.00
2019-04-03T11:14:38.513Z,20.47
2019-04-03T11:17:42.943Z,21.60
2019-04-03T11:20:48.265Z,21.40
2019-04-03T11:23:53.694Z,20.87
2019-04-03T11:26:59.217Z,20.63
2019-04-03T11:30:10.991Z,21.60
2019-04-03T11:33:17.515Z,21.63
2019-04-03T11:36:29.551Z,21.57
2019-04-03T11:39:32.534Z,22.13
2019-04-03T11:42:37.912Z,21.37
2019-04-03T11:45:43.342Z,21.90
2019-04-03T11:48:49.183Z,23.90
2019-04-03T11:51:54.693Z,23.17
2019-04-03T11:55:00.269Z,24.00
2019-04-03T11:58:06.072Z,21.60
2019-04-03T12:01:11.933Z,23.47
2019-04-03T12:04:17.635Z,22.70
2019-04-03T12:07:24.744Z,22.27
2019-04-03T12:10:32.821Z,22.80
2019-04-03T12:13:39.213Z,23.60
2019-04-03T12:16:44.873Z,22.07
2019-04-03T12:19:50.219Z,23.23
2019-04-03T12:22:56.963Z,20.77
2019-04-03T12:26:02.486Z,20.53
2019-04-03T12:29:08.388Z,15.43
2019-04-03T12:32:13.945Z,14.20
2019-04-03T12:35:19.623Z,13.27
2019-04-03T12:38:25.036Z,12.30
2019-04-03T12:41:31.957Z,14.20
2019-04-03T12:44:37.398Z,13.77
2019-04-03T12:47:47.704Z,14.53
2019-04-03T12:50:53.322Z,13.33
2019-04-03T12:53:59.966Z,14.53
2019-04-03T12:57:05.577Z,14.50
2019-04-03T13:00:13.482Z,13.10
2019-04-03T13:03:19.445Z,12.70
2019-04-03T13:06:25.031Z,13.00
2019-04-03T13:09:30.666Z,16.60
2019-04-03T13:12:36.113Z,15.17
2019-04-03T13:15:41.468Z,15.07
2019-04-03T13:18:50.582Z,15.33
2019-04-03T13:21:57.013Z,13.00
2019-04-03T13:25:05.388Z,14.50
2019-04-03T13:28:10.683Z,14.50
2019-04-03T13:31:16.349Z,14.10
2019-04-03T13:34:21.945Z,14.17
2019-04-03T13:37:27.736Z,13.20
2019-04-03T13:40:36.425Z,14.00
2019-04-03T13:43:40.756Z,14.77
2019-04-03T13:46:46.292Z,14.87
2019-04-03T13:49:52.059Z,15.50
2019-04-03T13:52:57.457Z,15.00
2019-04-03T13:56:05.338Z,14.73
2019-04-03T13:59:10.795Z,16.30
2019-04-03T14:02:16.224Z,15.77
2019-04-03T14:05:21.965Z,15.57
2019-04-03T14:08:28.853Z,15.43
2019-04-03T14:11:34.313Z,17.27
2019-04-03T14:14:39.923Z,15.60
2019-04-03T14:17:55.156Z,14.83
2019-04-03T14:20:55.298Z,17.57
2019-04-03T14:23:59.389Z,17.47
2019-04-03T14:27:17.158Z,17.00
2019-04-03T14:30:14.419Z,15.80
2019-04-03T14:33:21.280Z,15.80
2019-04-03T14:36:27.456Z,15.80
2019-04-03T14:39:33.209Z,17.13
2019-04-03T14:42:38.673Z,15.30
2019-04-03T14:45:45.191Z,14.90
2019-04-03T14:48:53.253Z,14.43
2019-04-03T14:51:58.787Z,15.13
2019-04-03T14:55:16.587Z,15.00
2019-04-03T14:58:12.049Z,14.33
2019-04-03T15:01:19.868Z,15.83
2019-04-03T15:04:27.469Z,16.50
2019-04-03T15:07:33.042Z,14.50
2019-04-03T15:10:38.538Z,17.30
2019-04-03T15:13:44.256Z,16.27
2019-04-03T15:16:50.005Z,16.70
2019-04-03T15:19:57.069Z,14.30
2019-04-03T15:23:04.804Z,16.73
2019-04-03T15:26:09.278Z,16.33
2019-04-03T15:29:14.697Z,15.30
2019-04-03T15:32:20.478Z,14.30
2019-04-03T15:35:25.885Z,15.50
2019-04-03T15:38:31.196Z,14.83
2019-04-03T15:41:36.999Z,14.93
2019-04-03T15:44:42.507Z,13.97
2019-04-03T15:47:49.687Z,13.30
2019-04-03T15:50:55.495Z,12.40
2019-04-03T15:54:03.818Z,11.83
2019-04-03T15:57:09.129Z,13.27
2019-04-03T16:00:15.702Z,14.13
2019-04-03T16:03:21.255Z,13.90
2019-04-03T16:06:26.622Z,14.97
2019-04-03T16:09:32.328Z,13.83
2019-04-03T16:12:41.502Z,14.27
2019-04-03T16:15:44.742Z,15.90
2019-04-03T16:18:50.571Z,14.57
2019-04-03T16:21:57.659Z,14.63
2019-04-03T16:25:03.699Z,14.47
2019-04-03T16:28:12.936Z,13.90
2019-04-03T16:31:17.980Z,13.40
2019-04-03T16:34:24.367Z,13.50
2019-04-03T16:37:29.986Z,13.10
2019-04-03T16:40:37.783Z,13.23
2019-04-03T16:43:42.674Z,13.07
2019-04-03T16:46:48.077Z,15.10
2019-04-03T16:49:54.843Z,14.40
2019-04-03T16:53:00.691Z,14.77
2019-04-03T16:56:07.061Z,16.00
2019-04-03T16:59:12.812Z,14.47
2019-04-03T17:02:23.897Z,15.97
2019-04-03T17:05:28.901Z,15.60
2019-04-03T17:08:35.137Z,16.17
2019-04-03T17:11:43.501Z,16.27
2019-04-03T17:14:47.537Z,17.53
2019-04-03T17:17:52.829Z,17.00
2019-04-03T17:20:58.439Z,16.83
2019-04-03T17:24:04.993Z,16.70
2019-04-03T17:27:10.560Z,21.70
2019-04-03T17:30:18.346Z,17.23
2019-04-03T17:33:23.503Z,16.60
2019-04-03T17:36:30.466Z,17.70
2019-04-03T17:39:36.265Z,18.80
2019-04-03T17:42:42.151Z,17.00
2019-04-03T17:45:47.654Z,17.37
2019-04-03T17:48:53.712Z,17.67
2019-04-03T17:52:00.138Z,17.73
2019-04-03T17:55:07.873Z,18.37
2019-04-03T17:58:16.449Z,17.30
2019-04-03T18:01:22.200Z,18.40
2019-04-03T18:04:29.078Z,17.40
2019-04-03T18:07:37.032Z,18.13
2019-04-03T18:10:42.575Z,16.63
2019-04-03T18:13:49.560Z,18.73
2019-04-03T18:16:54.834Z,20.40
2019-04-03T18:20:00.170Z,18.60
2019-04-03T18:23:05.566Z,18.60
2019-04-03T18:26:11.022Z,18.40
2019-04-03T18:29:16.368Z,18.43
2019-04-03T18:32:21.791Z,19.40
2019-04-03T18:35:27.221Z,17.80
2019-04-03T18:38:32.682Z,21.23
2019-04-03T18:41:38.073Z,19.63
2019-04-03T18:44:43.507Z,20.10
2019-04-03T18:47:51.032Z,20.50
2019-04-03T18:50:58.105Z,18.80
2019-04-03T18:54:03.816Z,20.63
2019-04-03T18:57:09.338Z,20.40
2019-04-03T19:00:15.131Z,18.67
2019-04-03T19:03:20.616Z,18.90
2019-04-03T19:06:25.947Z,20.37
2019-04-03T19:09:31.453Z,19.73
2019-04-03T19:12:36.905Z,21.17
2019-04-03T19:15:43.486Z,21.17
2019-04-03T19:18:49.234Z,20.97
2019-04-03T19:21:56.666Z,21.10
2019-04-03T19:25:02.127Z,19.13
2019-04-03T19:28:07.502Z,19.80
2019-04-03T19:31:12.809Z,20.50
2019-04-03T19:34:20.258Z,21.00
2019-04-03T19:37:25.137Z,20.23
2019-04-03T19:40:30.573Z,21.00
2019-04-03T19:43:35.896Z,21.73
2019-04-03T19:46:41.204Z,22.50
2019-04-03T19:49:48.027Z,20.50
2019-04-03T19:52:53.586Z,20.20
2019-04-03T19:55:58.882Z,20.20
2019-04-03T19:59:04.954Z,21.57
2019-04-03T20:02:10.427Z,20.30
2019-04-03T20:05:18.655Z,19.77
2019-04-03T20:08:22.990Z,20.37
2019-04-03T20:11:28.479Z,21.50
2019-04-03T20:14:33.813Z,22.80
2019-04-03T20:17:39.142Z,21.60
2019-04-03T20:20:45.527Z,18.20
2019-04-03T20:23:50.859Z,12.93
2019-04-03T20:26:56.256Z,14.83
2019-04-03T20:30:03.151Z,12.70
2019-04-03T20:33:11.421Z,12.40
2019-04-03T20:36:16.790Z,12.20
2019-04-03T20:39:24.402Z,12.87
2019-04-03T20:42:29.696Z,12.30
2019-04-03T20:45:34.995Z,12.33
2019-04-03T20:48:40.307Z,11.83
2019-04-03T20:51:48.447Z,11.20
2019-04-03T20:54:53.175Z,11.27
2019-04-03T20:57:59.151Z,10.10
2019-04-03T21:01:07.313Z,10.43
2019-04-03T21:04:15.456Z,11.33
2019-04-03T21:07:23.746Z,10.30
2019-04-03T21:10:27.825Z,11.27
2019-04-03T21:13:33.138Z,12.00
2019-04-03T21:16:38.444Z,12.10
2019-04-03T21:19:43.765Z,13.67
2019-04-03T21:22:50.082Z,12.97
2019-04-03T21:25:55.396Z,13.70
2019-04-03T21:29:00.694Z,11.57
2019-04-03T21:32:06.231Z,13.17
2019-04-03T21:35:13.263Z,13.03
2019-04-03T21:38:22.578Z,12.60
2019-04-03T21:41:27.845Z,13.60
2019-04-03T21:44:33.131Z,13.20
2019-04-03T21:47:38.525Z,13.00
2019-04-03T21:50:43.737Z,13.17
2019-04-03T21:53:49.033Z,12.17
2019-04-03T21:56:54.336Z,12.70
2019-04-03T21:59:59.560Z,10.60
2019-04-03T22:03:06.817Z,10.80
2019-04-03T22:06:11.921Z,10.03
2019-04-03T22:09:17.252Z,10.90
2019-04-03T22:12:22.730Z,10.17
2019-04-03T22:15:28.036Z,10.00
2019-04-03T22:18:34.655Z,11.00
2019-04-03T22:21:39.967Z,10.10
2019-04-03T22:24:45.273Z,9.27
2019-04-03T22:27:50.511Z,10.57
2019-04-03T22:30:57.209Z,10.80
2019-04-03T22:34:02.491Z,10.53
2019-04-03T22:37:07.862Z,10.90
2019-04-03T22:40:13.430Z,11.30
2019-04-03T22:43:18.701Z,11.53
2019-04-03T22:46:24.092Z,11.37
2019-04-03T22:49:33.584Z,11.73
2019-04-03T22:52:38.057Z,10.83
2019-04-03T22:55:46.401Z,9.70
2019-04-03T22:58:52.865Z,11.50
2019-04-03T23:02:00.685Z,12.50
2019-04-03T23:05:05.980Z,13.27
2019-04-03T23:08:12.196Z,14.87
2019-04-03T23:11:17.526Z,15.07
2019-04-03T23:14:22.825Z,14.07
2019-04-03T23:17:28.246Z,15.30
2019-04-03T23:20:33.585Z,15.90
2019-04-03T23:23:38.951Z,14.33
2019-04-03T23:26:44.192Z,12.00
2019-04-03T23:29:49.416Z,14.13
2019-04-03T23:32:54.730Z,14.33
2019-04-03T23:36:00.070Z,12.40
2019-04-03T23:39:08.000Z,11.60
2019-04-03T23:42:13.273Z,14.00
2019-04-03T23:45:19.435Z,12.90
2019-04-03T23:48:24.732Z,11.30
2019-04-03T23:51:30.212Z,12.10
2019-04-03T23:54:35.721Z,12.37
2019-04-03T23:57:41.111Z,11.13
